sensor_id;sensor_type;location;lat;lon;timestamp;pressure;altitude;pressure_sealevel;temperature;humidity
24558;BME280;12726;49.148;8.582;2022-09-27T00:00:29;98643.59;;;10.16;100.00
24558;BME280;12726;49.148;8.582;2022-09-27T00:03:14;98645.00;;;10.19;100.00
24558;BME280;12726;49.148;8.582;2022-09-27T00:06:02;98620.75;;;10.14;100.00
24558;BME280;12726;49.148;8.582;2022-09-27T00:08:48;98632.19;;;10.26;100.00
24558;BME280;12726;49.148;8.582;2022-09-27T00:11:38;98635.19;;;10.30;100.00
24558;BME280;12726;49.148;8.582;2022-09-27T00:14:26;98630.31;;;10.27;100.00
24558;BME280;12726;49.148;8.582;2022-09-27T00:17:11;98623.81;;;10.23;100.00
24558;BME280;12726;49.148;8.582;2022-09-27T00:19:58;98634.91;;;10.31;100.00
24558;BME280;12726;49.148;8.582;2022-09-27T00:22:44;98635.19;;;10.30;100.00
24558;BME280;12726;49.148;8.582;2022-09-27T00:25:29;98630.59;;;10.30;100.00
24558;BME280;12726;49.148;8.582;2022-09-27T00:28:16;98616.81;;;10.22;100.00
24558;BME280;12726;49.148;8.582;2022-09-27T00:31:02;98630.66;;;10.35;100.00
24558;BME280;12726;49.148;8.582;2022-09-27T00:33:49;98637.97;;;10.40;100.00
24558;BME280;12726;49.148;8.582;2022-09-27T00:36:36;98622.34;;;10.37;100.00
24558;BME280;12726;49.148;8.582;2022-09-27T00:39:21;98622.06;;;10.38;100.00
24558;BME280;12726;49.148;8.582;2022-09-27T00:42:08;98604.22;;;10.27;100.00
24558;BME280;12726;49.148;8.582;2022-09-27T00:45:11;98623.41;;;10.36;100.00
24558;BME280;12726;49.148;8.582;2022-09-27T00:48:00;98613.19;;;10.38;100.00
24558;BME280;12726;49.148;8.582;2022-09-27T00:50:53;98605.13;;;10.38;100.00
24558;BME280;12726;49.148;8.582;2022-09-27T00:53:44;98595.44;;;10.37;100.00
24558;BME280;12726;49.148;8.582;2022-09-27T00:56:35;98606.47;;;10.35;100.00
24558;BME280;12726;49.148;8.582;2022-09-27T00:59:24;98604.84;;;10.34;100.00
24558;BME280;12726;49.148;8.582;2022-09-27T01:02:12;98602.72;;;10.36;100.00
24558;BME280;12726;49.148;8.582;2022-09-27T01:04:58;98597.00;;;10.33;100.00
24558;BME280;12726;49.148;8.582;2022-09-27T01:07:45;98592.44;;;10.33;100.00
24558;BME280;12726;49.148;8.582;2022-09-27T01:10:35;98601.91;;;10.36;100.00
24558;BME280;12726;49.148;8.582;2022-09-27T01:13:30;98591.13;;;10.36;100.00
24558;BME280;12726;49.148;8.582;2022-09-27T01:16:22;98595.69;;;10.35;100.00
24558;BME280;12726;49.148;8.582;2022-09-27T01:19:20;98603.19;;;10.33;100.00
24558;BME280;12726;49.148;8.582;2022-09-27T01:22:16;98598.88;;;10.32;100.00
24558;BME280;12726;49.148;8.582;2022-09-27T01:25:26;98602.16;;;10.34;100.00
24558;BME280;12726;49.148;8.582;2022-09-27T01:28:20;98606.75;;;10.39;100.00
24558;BME280;12726;49.148;8.582;2022-09-27T01:31:15;98581.03;;;10.21;100.00
24558;BME280;12726;49.148;8.582;2022-09-27T01:34:06;98611.59;;;10.37;100.00
24558;BME280;12726;49.148;8.582;2022-09-27T01:36:58;98619.91;;;10.35;100.00
24558;BME280;12726;49.148;8.582;2022-09-27T01:39:57;98612.91;;;10.34;100.00
24558;BME280;12726;49.148;8.582;2022-09-27T01:42:47;98614.53;;;10.35;100.00
24558;BME280;12726;49.148;8.582;2022-09-27T01:45:37;98607.47;;;10.29;100.00
24558;BME280;12726;49.148;8.582;2022-09-27T01:48:30;98623.34;;;10.31;100.00
24558;BME280;12726;49.148;8.582;2022-09-27T01:51:20;98628.47;;;10.32;100.00
24558;BME280;12726;49.148;8.582;2022-09-27T01:54:13;98610.88;;;10.19;100.00
24558;BME280;12726;49.148;8.582;2022-09-27T01:57:00;98605.50;;;10.19;100.00
24558;BME280;12726;49.148;8.582;2022-09-27T01:59:50;98626.22;;;10.24;100.00
24558;BME280;12726;49.148;8.582;2022-09-27T02:02:40;98613.22;;;10.16;100.00
24558;BME280;12726;49.148;8.582;2022-09-27T02:05:32;98629.19;;;10.23;100.00
24558;BME280;12726;49.148;8.582;2022-09-27T02:08:25;98622.44;;;10.20;100.00
24558;BME280;12726;49.148;8.582;2022-09-27T02:11:17;98631.06;;;10.22;100.00
24558;BME280;12726;49.148;8.582;2022-09-27T02:14:10;98631.25;;;10.15;100.00
24558;BME280;12726;49.148;8.582;2022-09-27T02:17:06;98607.69;;;10.01;100.00
24558;BME280;12726;49.148;8.582;2022-09-27T02:20:00;98625.31;;;10.13;100.00
24558;BME280;12726;49.148;8.582;2022-09-27T02:22:52;98631.00;;;10.17;100.00
24558;BME280;12726;49.148;8.582;2022-09-27T02:25:45;98629.28;;;10.11;100.00
24558;BME280;12726;49.148;8.582;2022-09-27T02:28:37;98640.91;;;10.16;100.00
24558;BME280;12726;49.148;8.582;2022-09-27T02:31:27;98635.44;;;10.06;100.00
24558;BME280;12726;49.148;8.582;2022-09-27T02:34:17;98634.09;;;10.09;100.00
24558;BME280;12726;49.148;8.582;2022-09-27T02:37:06;98651.94;;;10.15;100.00
24558;BME280;12726;49.148;8.582;2022-09-27T02:39:53;98645.47;;;10.16;100.00
24558;BME280;12726;49.148;8.582;2022-09-27T02:42:41;98655.19;;;10.17;100.00
24558;BME280;12726;49.148;8.582;2022-09-27T02:45:31;98650.31;;;10.14;100.00
24558;BME280;12726;49.148;8.582;2022-09-27T02:48:26;98650.56;;;10.12;100.00
24558;BME280;12726;49.148;8.582;2022-09-27T02:51:25;98654.63;;;10.15;100.00
24558;BME280;12726;49.148;8.582;2022-09-27T02:54:18;98655.69;;;10.14;100.00
24558;BME280;12726;49.148;8.582;2022-09-27T02:57:17;98656.50;;;10.14;100.00
24558;BME280;12726;49.148;8.582;2022-09-27T03:00:09;98656.75;;;10.13;100.00
24558;BME280;12726;49.148;8.582;2022-09-27T03:03:03;98654.56;;;10.10;100.00
24558;BME280;12726;49.148;8.582;2022-09-27T03:05:53;98660.50;;;10.12;100.00
24558;BME280;12726;49.148;8.582;2022-09-27T03:08:42;98648.31;;;10.04;100.00
24558;BME280;12726;49.148;8.582;2022-09-27T03:11:28;98667.75;;;10.11;100.00
24558;BME280;12726;49.148;8.582;2022-09-27T03:14:15;98658.81;;;10.06;100.00
24558;BME280;12726;49.148;8.582;2022-09-27T03:17:00;98669.63;;;10.11;100.00
24558;BME280;12726;49.148;8.582;2022-09-27T03:19:46;98673.13;;;10.11;100.00
24558;BME280;12726;49.148;8.582;2022-09-27T03:22:31;98678.22;;;10.08;100.00
24558;BME280;12726;49.148;8.582;2022-09-27T03:25:17;98667.91;;;10.00;100.00
24558;BME280;12726;49.148;8.582;2022-09-27T03:28:04;98688.41;;;10.06;100.00
24558;BME280;12726;49.148;8.582;2022-09-27T03:30:51;98690.53;;;10.04;100.00
24558;BME280;12726;49.148;8.582;2022-09-27T03:33:37;98686.19;;;10.03;100.00
24558;BME280;12726;49.148;8.582;2022-09-27T03:36:22;98687.78;;;9.99;100.00
24558;BME280;12726;49.148;8.582;2022-09-27T03:39:07;98694.03;;;10.04;100.00
24558;BME280;12726;49.148;8.582;2022-09-27T03:41:54;98693.44;;;10.02;100.00
24558;BME280;12726;49.148;8.582;2022-09-27T03:44:39;98700.16;;;10.00;100.00
24558;BME280;12726;49.148;8.582;2022-09-27T03:47:26;98696.66;;;9.99;100.00
24558;BME280;12726;49.148;8.582;2022-09-27T03:50:13;98703.34;;;9.97;100.00
24558;BME280;12726;49.148;8.582;2022-09-27T03:52:59;98705.84;;;10.03;100.00
24558;BME280;12726;49.148;8.582;2022-09-27T03:55:44;98691.56;;;10.03;100.00
24558;BME280;12726;49.148;8.582;2022-09-27T03:58:31;98693.44;;;10.02;100.00
24558;BME280;12726;49.148;8.582;2022-09-27T04:01:16;98686.53;;;9.85;100.00
24558;BME280;12726;49.148;8.582;2022-09-27T04:04:04;98707.16;;;10.01;100.00
24558;BME280;12726;49.148;8.582;2022-09-27T04:06:49;98709.84;;;10.01;100.00
24558;BME280;12726;49.148;8.582;2022-09-27T04:09:35;98710.59;;;9.96;100.00
24558;BME280;12726;49.148;8.582;2022-09-27T04:12:21;98716.03;;;10.01;100.00
24558;BME280;12726;49.148;8.582;2022-09-27T04:15:08;98710.59;;;9.96;100.00
24558;BME280;12726;49.148;8.582;2022-09-27T04:17:54;98711.63;;;9.95;100.00
24558;BME280;12726;49.148;8.582;2022-09-27T04:20:41;98706.78;;;9.92;100.00
24558;BME280;12726;49.148;8.582;2022-09-27T04:23:26;98708.03;;;9.85;100.00
24558;BME280;12726;49.148;8.582;2022-09-27T04:26:12;98717.28;;;9.94;100.00
24558;BME280;12726;49.148;8.582;2022-09-27T04:28:58;98730.16;;;9.92;100.00
24558;BME280;12726;49.148;8.582;2022-09-27T04:31:43;98732.28;;;9.90;100.00
24558;BME280;12726;49.148;8.582;2022-09-27T04:34:29;98734.16;;;9.89;100.00
24558;BME280;12726;49.148;8.582;2022-09-27T04:37:33;98733.09;;;9.90;100.00
24558;BME280;12726;49.148;8.582;2022-09-27T04:40:20;98736.84;;;9.89;100.00
24558;BME280;12726;49.148;8.582;2022-09-27T04:43:06;98739.28;;;9.91;100.00
24558;BME280;12726;49.148;8.582;2022-09-27T04:45:52;98742.22;;;9.89;100.00
24558;BME280;12726;49.148;8.582;2022-09-27T04:48:38;98743.28;;;9.88;100.00
24558;BME280;12726;49.148;8.582;2022-09-27T04:51:24;98745.13;;;9.88;100.00
24558;BME280;12726;49.148;8.582;2022-09-27T04:54:11;98754.34;;;9.92;100.00
24558;BME280;12726;49.148;8.582;2022-09-27T04:56:57;98758.03;;;9.86;100.00
24558;BME280;12726;49.148;8.582;2022-09-27T04:59:43;98763.06;;;9.82;100.00
24558;BME280;12726;49.148;8.582;2022-09-27T05:02:31;98767.56;;;9.76;100.00
24558;BME280;12726;49.148;8.582;2022-09-27T05:05:16;98773.00;;;9.81;100.00
24558;BME280;12726;49.148;8.582;2022-09-27T05:08:02;98779.97;;;9.77;100.00
24558;BME280;12726;49.148;8.582;2022-09-27T05:10:54;98784.75;;;9.75;100.00
24558;BME280;12726;49.148;8.582;2022-09-27T05:13:41;98783.94;;;9.75;100.00
24558;BME280;12726;49.148;8.582;2022-09-27T05:16:27;98796.50;;;9.69;100.00
24558;BME280;12726;49.148;8.582;2022-09-27T05:19:13;98796.97;;;9.66;100.00
24558;BME280;12726;49.148;8.582;2022-09-27T05:22:00;98793.88;;;9.74;100.00
24558;BME280;12726;49.148;8.582;2022-09-27T05:24:46;98801.06;;;9.69;100.00
24558;BME280;12726;49.148;8.582;2022-09-27T05:27:43;98790.94;;;9.59;100.00
24558;BME280;12726;49.148;8.582;2022-09-27T05:30:29;98811.88;;;9.74;100.00
24558;BME280;12726;49.148;8.582;2022-09-27T05:33:14;98822.31;;;9.70;100.00
24558;BME280;12726;49.148;8.582;2022-09-27T05:36:00;98812.22;;;9.61;100.00
24558;BME280;12726;49.148;8.582;2022-09-27T05:38:47;98820.25;;;9.61;100.00
24558;BME280;12726;49.148;8.582;2022-09-27T05:41:33;98830.53;;;9.64;100.00
24558;BME280;12726;49.148;8.582;2022-09-27T05:44:20;98839.25;;;9.71;100.00
24558;BME280;12726;49.148;8.582;2022-09-27T05:47:06;98834.13;;;9.69;100.00
24558;BME280;12726;49.148;8.582;2022-09-27T05:49:52;98836.81;;;9.69;100.00
24558;BME280;12726;49.148;8.582;2022-09-27T05:52:38;98835.16;;;9.68;100.00
24558;BME280;12726;49.148;8.582;2022-09-27T05:55:24;98844.38;;;9.72;100.00
24558;BME280;12726;49.148;8.582;2022-09-27T05:58:09;98829.06;;;9.73;100.00
24558;BME280;12726;49.148;8.582;2022-09-27T06:01:00;98842.41;;;9.85;100.00
24558;BME280;12726;49.148;8.582;2022-09-27T06:03:46;98850.25;;;9.86;100.00
24558;BME280;12726;49.148;8.582;2022-09-27T06:06:35;98846.50;;;9.87;100.00
24558;BME280;12726;49.148;8.582;2022-09-27T06:09:21;98842.25;;;9.91;100.00
24558;BME280;12726;49.148;8.582;2022-09-27T06:12:07;98847.63;;;9.91;100.00
24558;BME280;12726;49.148;8.582;2022-09-27T06:14:54;98847.03;;;9.89;100.00
24558;BME280;12726;49.148;8.582;2022-09-27T06:17:41;98835.97;;;9.86;100.00
24558;BME280;12726;49.148;8.582;2022-09-27T06:20:27;98855.84;;;9.85;100.00
24558;BME280;12726;49.148;8.582;2022-09-27T06:23:14;98855.03;;;9.84;100.00
24558;BME280;12726;49.148;8.582;2022-09-27T06:26:00;98857.97;;;9.82;100.00
24558;BME280;12726;49.148;8.582;2022-09-27T06:28:46;98855.03;;;9.84;100.00
24558;BME280;12726;49.148;8.582;2022-09-27T06:31:34;98850.13;;;9.81;100.00
24558;BME280;12726;49.148;8.582;2022-09-27T06:34:20;98861.22;;;9.85;100.00
24558;BME280;12726;49.148;8.582;2022-09-27T06:37:06;98867.66;;;9.83;100.00
24558;BME280;12726;49.148;8.582;2022-09-27T06:39:52;98874.31;;;9.81;100.00
24558;BME280;12726;49.148;8.582;2022-09-27T06:42:38;98881.84;;;9.79;100.00
24558;BME280;12726;49.148;8.582;2022-09-27T06:45:24;98892.84;;;9.77;100.00
24558;BME280;12726;49.148;8.582;2022-09-27T06:48:12;98894.47;;;9.78;100.00
24558;BME280;12726;49.148;8.582;2022-09-27T06:51:00;98898.22;;;9.77;100.00
24558;BME280;12726;49.148;8.582;2022-09-27T06:53:46;98894.94;;;9.75;100.00
24558;BME280;12726;49.148;8.582;2022-09-27T06:56:31;98897.63;;;9.75;100.00
24558;BME280;12726;49.148;8.582;2022-09-27T06:59:17;98902.53;;;9.78;100.00
24558;BME280;12726;49.148;8.582;2022-09-27T07:02:20;98914.75;;;9.86;100.00
24558;BME280;12726;49.148;8.582;2022-09-27T07:05:07;98914.16;;;9.84;100.00
24558;BME280;12726;49.148;8.582;2022-09-27T07:07:54;98915.06;;;9.90;100.00
24558;BME280;12726;49.148;8.582;2022-09-27T07:10:40;98920.13;;;9.86;100.00
24558;BME280;12726;49.148;8.582;2022-09-27T07:13:26;98925.34;;;9.93;100.00
24558;BME280;12726;49.148;8.582;2022-09-27T07:16:13;98919.38;;;9.91;100.00
24558;BME280;12726;49.148;8.582;2022-09-27T07:18:58;98923.84;;;10.02;100.00
24558;BME280;12726;49.148;8.582;2022-09-27T07:21:44;98932.84;;;10.07;100.00
24558;BME280;12726;49.148;8.582;2022-09-27T07:24:30;98934.13;;;10.05;100.00
24558;BME280;12726;49.148;8.582;2022-09-27T07:27:16;98937.41;;;10.07;100.00
24558;BME280;12726;49.148;8.582;2022-09-27T07:30:02;98936.00;;;10.04;100.00
24558;BME280;12726;49.148;8.582;2022-09-27T07:32:48;98947.56;;;10.05;100.00
24558;BME280;12726;49.148;8.582;2022-09-27T07:35:34;98947.81;;;10.03;100.00
24558;BME280;12726;49.148;8.582;2022-09-27T07:38:23;98958.09;;;10.06;99.84
24558;BME280;12726;49.148;8.582;2022-09-27T07:41:11;98968.69;;;10.13;100.00
24558;BME280;12726;49.148;8.582;2022-09-27T07:43:58;98965.28;;;10.17;98.68
24558;BME280;12726;49.148;8.582;2022-09-27T07:46:43;98972.19;;;10.30;97.98
24558;BME280;12726;49.148;8.582;2022-09-27T07:49:29;98974.63;;;10.48;97.72
24558;BME280;12726;49.148;8.582;2022-09-27T07:52:15;98978.69;;;10.68;96.52
24558;BME280;12726;49.148;8.582;2022-09-27T07:55:01;98980.69;;;10.94;95.67
24558;BME280;12726;49.148;8.582;2022-09-27T07:57:47;98988.00;;;10.98;94.29
24558;BME280;12726;49.148;8.582;2022-09-27T08:00:33;98987.41;;;10.96;93.87
24558;BME280;12726;49.148;8.582;2022-09-27T08:03:19;99002.94;;;10.89;94.62
24558;BME280;12726;49.148;8.582;2022-09-27T08:06:05;98995.22;;;10.76;93.12
24558;BME280;12726;49.148;8.582;2022-09-27T08:08:51;99009.25;;;10.78;94.33
24558;BME280;12726;49.148;8.582;2022-09-27T08:11:38;99003.31;;;10.76;94.42
24558;BME280;12726;49.148;8.582;2022-09-27T08:14:24;98998.56;;;10.83;93.91
24558;BME280;12726;49.148;8.582;2022-09-27T08:17:10;99000.06;;;10.96;91.24
24558;BME280;12726;49.148;8.582;2022-09-27T08:19:55;99003.78;;;11.12;90.85
24558;BME280;12726;49.148;8.582;2022-09-27T08:22:41;98994.59;;;11.29;91.29
24558;BME280;12726;49.148;8.582;2022-09-27T08:25:28;98988.28;;;11.46;89.75
24558;BME280;12726;49.148;8.582;2022-09-27T08:28:14;98994.09;;;11.81;88.53
24558;BME280;12726;49.148;8.582;2022-09-27T08:31:01;98989.72;;;12.34;84.37
24558;BME280;12726;49.148;8.582;2022-09-27T08:33:48;98990.31;;;12.41;83.06
24558;BME280;12726;49.148;8.582;2022-09-27T08:36:34;98993.38;;;12.23;84.18
24558;BME280;12726;49.148;8.582;2022-09-27T08:39:20;98992.09;;;11.98;84.67
24558;BME280;12726;49.148;8.582;2022-09-27T08:42:13;98994.84;;;12.03;85.51
24558;BME280;12726;49.148;8.582;2022-09-27T08:45:10;98997.22;;;12.27;85.38
24558;BME280;12726;49.148;8.582;2022-09-27T08:47:59;98999.94;;;12.00;83.85
24558;BME280;12726;49.148;8.582;2022-09-27T08:50:47;99002.19;;;11.59;85.69
24558;BME280;12726;49.148;8.582;2022-09-27T08:53:36;99005.03;;;11.48;86.69
24558;BME280;12726;49.148;8.582;2022-09-27T08:56:25;99003.00;;;11.60;86.15
24558;BME280;12726;49.148;8.582;2022-09-27T08:59:13;98997.56;;;11.76;84.92
24558;BME280;12726;49.148;8.582;2022-09-27T09:01:59;99002.84;;;11.93;84.61
24558;BME280;12726;49.148;8.582;2022-09-27T09:04:48;98997.34;;;12.15;83.24
24558;BME280;12726;49.148;8.582;2022-09-27T09:07:51;98997.25;;;12.32;81.88
24558;BME280;12726;49.148;8.582;2022-09-27T09:10:48;99011.75;;;12.26;82.62
24558;BME280;12726;49.148;8.582;2022-09-27T09:14:11;99007.25;;;12.04;82.32
24558;BME280;12726;49.148;8.582;2022-09-27T09:17:08;99003.63;;;11.67;85.35
24558;BME280;12726;49.148;8.582;2022-09-27T09:20:13;99011.72;;;11.45;86.95
24558;BME280;12726;49.148;8.582;2022-09-27T09:23:21;99010.00;;;11.34;89.12
24558;BME280;12726;49.148;8.582;2022-09-27T09:26:16;99009.41;;;11.32;90.35
24558;BME280;12726;49.148;8.582;2022-09-27T09:29:15;99011.09;;;11.38;92.10
24558;BME280;12726;49.148;8.582;2022-09-27T09:32:14;98997.13;;;11.41;89.43
24558;BME280;12726;49.148;8.582;2022-09-27T09:35:12;99001.06;;;11.55;89.77
24558;BME280;12726;49.148;8.582;2022-09-27T09:38:01;98997.94;;;11.63;88.92
24558;BME280;12726;49.148;8.582;2022-09-27T09:40:52;98998.88;;;11.74;88.49
24558;BME280;12726;49.148;8.582;2022-09-27T09:43:45;98995.31;;;11.73;89.30
24558;BME280;12726;49.148;8.582;2022-09-27T09:46:34;98990.03;;;11.79;87.33
24558;BME280;12726;49.148;8.582;2022-09-27T09:49:27;98987.50;;;11.72;88.01
24558;BME280;12726;49.148;8.582;2022-09-27T09:52:17;98981.31;;;11.71;87.48
24558;BME280;12726;49.148;8.582;2022-09-27T09:55:06;98976.41;;;11.68;86.42
24558;BME280;12726;49.148;8.582;2022-09-27T09:58:04;98976.38;;;11.90;86.86
24558;BME280;12726;49.148;8.582;2022-09-27T10:00:59;98962.84;;;12.54;83.16
24558;BME280;12726;49.148;8.582;2022-09-27T10:03:53;98965.56;;;12.54;81.75
24558;BME280;12726;49.148;8.582;2022-09-27T10:06:39;98966.81;;;12.41;81.68
24558;BME280;12726;49.148;8.582;2022-09-27T10:09:26;98971.72;;;12.12;84.51
24558;BME280;12726;49.148;8.582;2022-09-27T10:12:13;98977.16;;;11.86;87.12
24558;BME280;12726;49.148;8.582;2022-09-27T10:15:00;98998.81;;;11.47;90.40
24558;BME280;12726;49.148;8.582;2022-09-27T10:17:49;98995.84;;;11.44;91.34
24558;BME280;12726;49.148;8.582;2022-09-27T10:20:38;99004.91;;;11.37;87.65
24558;BME280;12726;49.148;8.582;2022-09-27T10:23:26;98994.41;;;11.63;87.93
24558;BME280;12726;49.148;8.582;2022-09-27T10:26:13;98993.41;;;11.69;87.60
24558;BME280;12726;49.148;8.582;2022-09-27T10:29:22;98991.56;;;12.01;88.01
24558;BME280;12726;49.148;8.582;2022-09-27T10:32:21;98994.75;;;12.25;87.48
24558;BME280;12726;49.148;8.582;2022-09-27T10:35:32;98974.84;;;12.31;87.09
24558;BME280;12726;49.148;8.582;2022-09-27T10:38:25;98977.06;;;13.39;84.95
24558;BME280;12726;49.148;8.582;2022-09-27T10:41:21;98990.53;;;14.41;74.65
24558;BME280;12726;49.148;8.582;2022-09-27T10:44:26;98974.75;;;14.28;74.52
24558;BME280;12726;49.148;8.582;2022-09-27T10:47:16;98974.94;;;13.51;75.78
24558;BME280;12726;49.148;8.582;2022-09-27T10:50:15;98964.06;;;13.30;78.64
24558;BME280;12726;49.148;8.582;2022-09-27T10:53:04;98967.28;;;13.17;80.05
24558;BME280;12726;49.148;8.582;2022-09-27T10:55:50;98958.22;;;12.97;79.20
24558;BME280;12726;49.148;8.582;2022-09-27T10:58:37;98956.72;;;12.64;80.90
24558;BME280;12726;49.148;8.582;2022-09-27T11:01:23;98959.53;;;12.05;82.07
24558;BME280;12726;49.148;8.582;2022-09-27T11:04:17;98942.94;;;11.64;83.13
24558;BME280;12726;49.148;8.582;2022-09-27T11:07:13;98946.50;;;11.43;84.05
24558;BME280;12726;49.148;8.582;2022-09-27T11:09:59;98943.75;;;11.38;85.07
24558;BME280;12726;49.148;8.582;2022-09-27T11:13:04;98953.03;;;11.74;83.99
24558;BME280;12726;49.148;8.582;2022-09-27T11:16:10;98958.34;;;11.96;81.52
24558;BME280;12726;49.148;8.582;2022-09-27T11:19:06;98957.91;;;11.50;81.55
24558;BME280;12726;49.148;8.582;2022-09-27T11:22:00;98958.31;;;11.64;83.61
24558;BME280;12726;49.148;8.582;2022-09-27T11:25:00;98964.16;;;11.56;81.65
24558;BME280;12726;49.148;8.582;2022-09-27T11:27:58;98957.59;;;12.00;78.03
24558;BME280;12726;49.148;8.582;2022-09-27T11:30:54;98957.03;;;11.98;79.74
24558;BME280;12726;49.148;8.582;2022-09-27T11:37:07;98965.22;;;11.55;81.10
24558;BME280;12726;49.148;8.582;2022-09-27T11:40:14;98971.66;;;11.27;81.06
24558;BME280;12726;49.148;8.582;2022-09-27T11:46:23;98973.56;;;11.31;81.74
24558;BME280;12726;49.148;8.582;2022-09-27T11:52:40;98958.72;;;11.51;81.75
24558;BME280;12726;49.148;8.582;2022-09-27T11:55:36;98965.78;;;11.79;79.34
24558;BME280;12726;49.148;8.582;2022-09-27T11:58:34;98967.31;;;12.33;77.70
24558;BME280;12726;49.148;8.582;2022-09-27T12:01:32;98955.44;;;12.76;75.57
24558;BME280;12726;49.148;8.582;2022-09-27T12:04:45;98947.50;;;12.60;75.94
24558;BME280;12726;49.148;8.582;2022-09-27T12:07:41;98951.19;;;12.95;75.07
24558;BME280;12726;49.148;8.582;2022-09-27T12:10:30;98941.53;;;13.05;73.70
24558;BME280;12726;49.148;8.582;2022-09-27T12:13:21;98933.63;;;13.81;71.25
24558;BME280;12726;49.148;8.582;2022-09-27T12:16:11;98933.63;;;14.21;71.75
24558;BME280;12726;49.148;8.582;2022-09-27T12:19:02;98923.88;;;14.00;69.22
24558;BME280;12726;49.148;8.582;2022-09-27T12:21:47;98917.09;;;13.52;71.15
24558;BME280;12726;49.148;8.582;2022-09-27T12:24:33;98911.69;;;13.47;70.79
24558;BME280;12726;49.148;8.582;2022-09-27T12:27:26;98907.38;;;13.81;71.90
24558;BME280;12726;49.148;8.582;2022-09-27T12:30:13;98899.53;;;13.64;70.91
24558;BME280;12726;49.148;8.582;2022-09-27T12:33:03;98885.34;;;13.12;71.36
24558;BME280;12726;49.148;8.582;2022-09-27T12:35:53;98890.19;;;13.10;74.02
24558;BME280;12726;49.148;8.582;2022-09-27T12:38:46;98896.53;;;13.36;72.17
24558;BME280;12726;49.148;8.582;2022-09-27T12:41:37;98888.41;;;13.46;72.17
24558;BME280;12726;49.148;8.582;2022-09-27T12:44:26;98900.06;;;13.71;71.53
24558;BME280;12726;49.148;8.582;2022-09-27T12:47:20;98904.13;;;13.74;69.69
24558;BME280;12726;49.148;8.582;2022-09-27T12:50:14;98889.50;;;13.45;68.16
24558;BME280;12726;49.148;8.582;2022-09-27T12:53:13;98887.84;;;13.18;67.16
24558;BME280;12726;49.148;8.582;2022-09-27T12:56:15;98899.94;;;13.06;69.25
24558;BME280;12726;49.148;8.582;2022-09-27T12:59:14;98899.31;;;12.88;67.41
24558;BME280;12726;49.148;8.582;2022-09-27T13:02:20;98906.75;;;12.66;69.78
24558;BME280;12726;49.148;8.582;2022-09-27T13:08:54;98899.41;;;12.51;73.14
24558;BME280;12726;49.148;8.582;2022-09-27T13:11:47;98909.66;;;12.49;74.32
24558;BME280;12726;49.148;8.582;2022-09-27T13:14:45;98910.03;;;12.21;75.62
24558;BME280;12726;49.148;8.582;2022-09-27T13:17:46;98917.47;;;12.09;78.22
24558;BME280;12726;49.148;8.582;2022-09-27T13:20:40;98913.56;;;11.95;80.57
24558;BME280;12726;49.148;8.582;2022-09-27T13:26:56;98905.63;;;11.78;84.32
24558;BME280;12726;49.148;8.582;2022-09-27T13:29:44;98910.97;;;12.05;84.96
24558;BME280;12726;49.148;8.582;2022-09-27T13:32:30;98909.81;;;12.33;83.07
24558;BME280;12726;49.148;8.582;2022-09-27T13:35:21;98901.25;;;12.46;84.53
24558;BME280;12726;49.148;8.582;2022-09-27T13:38:20;98906.19;;;12.59;83.33
24558;BME280;12726;49.148;8.582;2022-09-27T13:41:14;98905.59;;;12.47;82.76
24558;BME280;12726;49.148;8.582;2022-09-27T13:44:05;98892.53;;;12.29;82.42
24558;BME280;12726;49.148;8.582;2022-09-27T13:46:59;98891.44;;;12.30;84.16
24558;BME280;12726;49.148;8.582;2022-09-27T13:49:47;98902.06;;;12.46;84.73
24558;BME280;12726;49.148;8.582;2022-09-27T13:52:36;98901.75;;;12.38;85.24
24558;BME280;12726;49.148;8.582;2022-09-27T13:55:46;98879.09;;;12.39;83.62
24558;BME280;12726;49.148;8.582;2022-09-27T13:58:37;98892.53;;;12.29;84.38
24558;BME280;12726;49.148;8.582;2022-09-27T14:01:29;98889.44;;;12.15;83.17
24558;BME280;12726;49.148;8.582;2022-09-27T14:04:18;98891.50;;;11.98;82.78
24558;BME280;12726;49.148;8.582;2022-09-27T14:07:09;98894.53;;;11.74;82.97
24558;BME280;12726;49.148;8.582;2022-09-27T14:09:58;98900.28;;;11.56;84.01
24558;BME280;12726;49.148;8.582;2022-09-27T14:12:44;98884.63;;;11.26;87.03
24558;BME280;12726;49.148;8.582;2022-09-27T14:15:31;98879.59;;;11.08;87.57
24558;BME280;12726;49.148;8.582;2022-09-27T14:18:18;98898.16;;;11.10;88.77
24558;BME280;12726;49.148;8.582;2022-09-27T14:21:16;98882.63;;;11.17;88.37
24558;BME280;12726;49.148;8.582;2022-09-27T14:24:26;98894.00;;;11.24;88.29
24558;BME280;12726;49.148;8.582;2022-09-27T14:27:17;98867.94;;;11.03;87.00
24558;BME280;12726;49.148;8.582;2022-09-27T14:30:12;98898.13;;;11.05;87.37
24558;BME280;12726;49.148;8.582;2022-09-27T14:32:58;98876.41;;;10.89;88.67
24558;BME280;12726;49.148;8.582;2022-09-27T14:35:47;98882.34;;;10.91;89.19
24558;BME280;12726;49.148;8.582;2022-09-27T14:38:51;98869.69;;;11.14;87.90
24558;BME280;12726;49.148;8.582;2022-09-27T14:41:37;98887.41;;;11.63;86.59
24558;BME280;12726;49.148;8.582;2022-09-27T14:44:23;98883.66;;;11.96;87.35
24558;BME280;12726;49.148;8.582;2022-09-27T14:47:16;98880.72;;;11.98;84.46
24558;BME280;12726;49.148;8.582;2022-09-27T14:50:11;98884.44;;;11.92;84.29
24558;BME280;12726;49.148;8.582;2022-09-27T14:52:59;98878.97;;;11.82;81.42
24558;BME280;12726;49.148;8.582;2022-09-27T14:55:47;98892.28;;;11.66;81.76
24558;BME280;12726;49.148;8.582;2022-09-27T14:58:34;98882.31;;;11.67;82.37
24558;BME280;12726;49.148;8.582;2022-09-27T15:01:20;98899.28;;;11.67;81.97
24558;BME280;12726;49.148;8.582;2022-09-27T15:04:12;98912.22;;;11.65;82.10
24558;BME280;12726;49.148;8.582;2022-09-27T15:07:01;98910.66;;;11.69;83.58
24558;BME280;12726;49.148;8.582;2022-09-27T15:09:48;98917.09;;;11.68;81.49
24558;BME280;12726;49.148;8.582;2022-09-27T15:12:35;98907.69;;;11.71;79.68
24558;BME280;12726;49.148;8.582;2022-09-27T15:15:22;98885.19;;;11.87;81.51